createdAt,value
2023-05-18T00:00:39.480Z,4.37
2023-05-18T00:03:08.097Z,4.34
2023-05-18T00:05:36.922Z,4.33
2023-05-18T00:08:05.481Z,4.29
2023-05-18T00:10:33.785Z,4.27
2023-05-18T00:13:02.056Z,4.29
2023-05-18T00:15:31.958Z,4.29
2023-05-18T00:18:00.464Z,4.23
2023-05-18T00:20:29.570Z,4.18
2023-05-18T00:22:58.099Z,4.17
2023-05-18T00:25:26.537Z,4.16
2023-05-18T00:27:54.803Z,4.15
2023-05-18T00:30:24.667Z,4.17
2023-05-18T00:32:54.483Z,4.16
2023-05-18T00:35:23.453Z,4.13
2023-05-18T00:37:51.819Z,4.10
2023-05-18T00:40:20.190Z,4.08
2023-05-18T00:42:48.513Z,4.05
2023-05-18T00:45:16.830Z,4.05
2023-05-18T00:47:45.168Z,4.03
2023-05-18T00:50:15.419Z,4.03
2023-05-18T00:52:44.074Z,4.02
2023-05-18T00:55:13.831Z,4.03
2023-05-18T00:57:45.588Z,4.00
2023-05-18T01:00:14.962Z,3.95
2023-05-18T01:02:45.603Z,3.92
2023-05-18T01:05:18.089Z,3.91
2023-05-18T01:07:46.350Z,3.90
2023-05-18T01:10:15.335Z,3.88
2023-05-18T01:12:46.705Z,3.85
2023-05-18T01:15:17.464Z,3.83
2023-05-18T01:17:52.653Z,3.82
2023-05-18T01:20:25.325Z,3.80
2023-05-18T01:23:20.698Z,3.80
2023-05-18T01:25:51.585Z,3.77
2023-05-18T01:28:22.368Z,3.72
2023-05-18T01:30:51.142Z,3.69
2023-05-18T01:33:19.389Z,3.66
2023-05-18T01:35:48.808Z,3.63
2023-05-18T01:38:17.914Z,3.59
2023-05-18T01:40:51.732Z,3.60
2023-05-18T01:43:22.424Z,3.56
2023-05-18T01:45:50.942Z,3.49
2023-05-18T01:48:22.467Z,3.44
2023-05-18T01:50:50.744Z,3.42
2023-05-18T01:53:23.124Z,3.39
2023-05-18T01:55:51.738Z,3.35
2023-05-18T01:58:22.021Z,3.27
2023-05-18T02:00:50.447Z,3.24
2023-05-18T02:03:18.971Z,3.21
2023-05-18T02:05:47.393Z,3.17
2023-05-18T02:08:16.407Z,3.14
2023-05-18T02:10:44.694Z,3.11
2023-05-18T02:13:13.218Z,3.11
2023-05-18T02:15:44.700Z,3.09
2023-05-18T02:18:14.083Z,3.08
2023-05-18T02:20:43.021Z,3.03
2023-05-18T02:23:11.325Z,2.98
2023-05-18T02:25:40.851Z,2.91
2023-05-18T02:28:09.128Z,2.87
2023-05-18T02:30:37.715Z,2.88
2023-05-18T02:33:09.230Z,2.87
2023-05-18T02:35:37.539Z,2.84
2023-05-18T02:38:05.878Z,2.80
2023-05-18T02:40:34.815Z,2.75
2023-05-18T02:43:03.199Z,2.72
2023-05-18T02:45:32.558Z,2.68
2023-05-18T02:48:01.484Z,2.64
2023-05-18T02:50:31.657Z,2.57
2023-05-18T02:53:00.646Z,2.55
2023-05-18T02:55:29.486Z,2.49
2023-05-18T02:58:23.054Z,2.46
2023-05-18T03:01:15.518Z,2.44
2023-05-18T03:03:49.863Z,2.42
2023-05-18T03:06:22.412Z,2.47
2023-05-18T03:08:51.798Z,2.57
2023-05-18T03:11:20.303Z,2.57
2023-05-18T03:13:48.621Z,2.50
2023-05-18T03:16:17.069Z,2.46
2023-05-18T03:18:46.225Z,2.43
2023-05-18T03:21:14.832Z,2.38
2023-05-18T03:23:44.523Z,2.41
2023-05-18T03:26:13.134Z,2.41
2023-05-18T03:28:42.183Z,2.35
2023-05-18T03:31:11.152Z,2.34
2023-05-18T03:33:39.491Z,2.35
2023-05-18T03:36:09.118Z,2.30
2023-05-18T03:38:37.474Z,2.27
2023-05-18T03:41:12.929Z,2.35
2023-05-18T03:43:41.502Z,2.37
2023-05-18T03:46:09.843Z,2.51
2023-05-18T03:48:38.590Z,2.61
2023-05-18T03:51:07.346Z,2.71
2023-05-18T03:53:36.382Z,2.67
2023-05-18T03:56:04.680Z,2.63
2023-05-18T03:58:34.385Z,2.64
2023-05-18T04:01:03.918Z,2.68
2023-05-18T04:03:34.864Z,2.69
2023-05-18T04:06:03.313Z,2.74
2023-05-18T04:08:34.552Z,2.81
2023-05-18T04:11:02.978Z,2.81
2023-05-18T04:13:31.236Z,2.80
2023-05-18T04:16:00.966Z,2.82
2023-05-18T04:18:30.467Z,2.87
2023-05-18T04:21:00.449Z,2.91
2023-05-18T04:23:28.824Z,2.94
2023-05-18T04:25:57.498Z,2.98
2023-05-18T04:28:25.802Z,3.08
2023-05-18T04:30:54.646Z,3.16
2023-05-18T04:33:24.400Z,3.28
2023-05-18T04:35:55.286Z,3.40
2023-05-18T04:38:24.501Z,3.48
2023-05-18T04:40:53.682Z,3.56
2023-05-18T04:43:22.831Z,3.67
2023-05-18T04:45:51.464Z,3.73
2023-05-18T04:48:20.098Z,3.85
2023-05-18T04:50:54.372Z,3.96
2023-05-18T04:53:22.889Z,4.09
2023-05-18T04:55:52.786Z,4.20
2023-05-18T04:58:21.298Z,4.31
2023-05-18T05:00:49.635Z,4.45
2023-05-18T05:03:18.084Z,4.57
2023-05-18T05:05:46.435Z,4.69
2023-05-18T05:08:17.197Z,4.82
2023-05-18T05:10:46.449Z,4.93
2023-05-18T05:13:14.981Z,5.03
2023-05-18T05:15:43.605Z,5.12
2023-05-18T05:18:11.921Z,5.21
2023-05-18T05:20:40.539Z,5.33
2023-05-18T05:23:09.320Z,5.46
2023-05-18T05:25:42.714Z,5.48
2023-05-18T05:28:11.026Z,5.58
2023-05-18T05:30:39.593Z,5.72
2023-05-18T05:33:07.919Z,5.79
2023-05-18T05:35:37.669Z,5.86
2023-05-18T05:38:06.901Z,5.93
2023-05-18T05:40:35.158Z,5.98
2023-05-18T05:43:06.189Z,6.04
2023-05-18T05:45:34.642Z,6.10
2023-05-18T05:48:06.533Z,6.15
2023-05-18T05:50:36.879Z,6.24
2023-05-18T05:53:06.956Z,6.29
2023-05-18T05:55:41.415Z,6.23
2023-05-18T05:58:15.147Z,6.23
2023-05-18T06:00:47.931Z,6.30
2023-05-18T06:03:16.773Z,6.32
2023-05-18T06:05:47.332Z,6.51
2023-05-18T06:08:17.296Z,6.66
2023-05-18T06:10:47.568Z,6.81
2023-05-18T06:13:17.414Z,6.79
2023-05-18T06:15:51.528Z,6.86
2023-05-18T06:18:20.000Z,6.90
2023-05-18T06:20:50.183Z,7.03
2023-05-18T06:23:22.890Z,7.23
2023-05-18T06:26:17.744Z,7.47
2023-05-18T06:29:15.733Z,7.59
2023-05-18T06:32:02.874Z,7.91
2023-05-18T06:34:42.551Z,8.15
2023-05-18T06:37:11.611Z,8.25
2023-05-18T06:39:40.313Z,8.33
2023-05-18T06:42:09.997Z,8.39
2023-05-18T06:44:51.155Z,8.69
2023-05-18T06:47:21.452Z,8.89
2023-05-18T06:49:50.558Z,9.19
2023-05-18T06:52:19.273Z,9.40
2023-05-18T06:54:47.825Z,9.50
2023-05-18T06:57:16.363Z,9.78
2023-05-18T06:59:44.618Z,9.86
2023-05-18T07:02:15.189Z,9.98
2023-05-18T07:04:43.768Z,10.13
2023-05-18T07:07:12.011Z,10.33
2023-05-18T07:09:42.074Z,10.45
2023-05-18T07:12:10.470Z,10.56
2023-05-18T07:14:38.773Z,10.75
2023-05-18T07:17:08.285Z,10.92
2023-05-18T07:19:37.921Z,11.06
2023-05-18T07:22:07.814Z,10.89
2023-05-18T07:24:36.203Z,10.70
2023-05-18T07:27:05.246Z,10.75
2023-05-18T07:29:33.580Z,10.97
2023-05-18T07:32:01.931Z,11.19
2023-05-18T07:34:30.220Z,11.49
2023-05-18T07:36:59.851Z,11.78
2023-05-18T07:39:29.493Z,11.86
2023-05-18T07:41:58.098Z,11.70
2023-05-18T07:44:26.377Z,11.53
2023-05-18T07:46:54.720Z,11.63
2023-05-18T07:49:23.428Z,11.76
2023-05-18T07:51:51.725Z,11.87
2023-05-18T07:54:21.761Z,12.10
2023-05-18T07:56:50.558Z,12.41
2023-05-18T07:59:18.904Z,12.53
2023-05-18T08:01:49.347Z,12.68
2023-05-18T08:04:17.749Z,12.87
2023-05-18T08:06:45.974Z,12.93
2023-05-18T08:09:14.481Z,12.84
2023-05-18T08:11:45.150Z,12.49
2023-05-18T08:14:13.368Z,12.23
2023-05-18T08:16:41.709Z,11.96
2023-05-18T08:19:09.922Z,11.82
2023-05-18T08:21:38.392Z,11.64
2023-05-18T08:24:08.579Z,11.87
2023-05-18T08:26:36.887Z,11.88
2023-05-18T08:29:10.115Z,11.70
2023-05-18T08:31:38.446Z,11.46
2023-05-18T08:34:06.827Z,11.34
2023-05-18T08:36:35.487Z,11.55
2023-05-18T08:39:05.618Z,11.83
2023-05-18T08:41:35.953Z,12.23
2023-05-18T08:44:07.128Z,12.58
2023-05-18T08:46:37.192Z,13.09
2023-05-18T08:49:06.200Z,13.47
2023-05-18T08:51:35.872Z,13.63
2023-05-18T08:54:05.363Z,13.50
2023-05-18T08:56:34.587Z,13.59
2023-05-18T08:59:07.842Z,13.19
2023-05-18T09:01:38.097Z,13.09
2023-05-18T09:04:06.769Z,13.42
2023-05-18T09:06:35.970Z,13.30
2023-05-18T09:09:06.632Z,13.35
2023-05-18T09:11:35.774Z,13.36
2023-05-18T09:14:04.198Z,13.72
2023-05-18T09:16:32.607Z,13.59
2023-05-18T09:19:03.113Z,13.47
2023-05-18T09:21:32.737Z,13.51
2023-05-18T09:24:01.311Z,14.39
2023-05-18T09:26:29.602Z,15.00
2023-05-18T09:28:59.585Z,15.14
2023-05-18T09:31:28.154Z,15.21
2023-05-18T09:33:56.896Z,15.42
2023-05-18T09:36:29.271Z,15.72
2023-05-18T09:38:58.669Z,15.89
2023-05-18T09:41:27.890Z,15.75
2023-05-18T09:43:56.296Z,15.95
2023-05-18T09:46:24.879Z,15.93
2023-05-18T09:48:54.020Z,15.69
2023-05-18T09:51:25.355Z,15.88
2023-05-18T09:53:56.791Z,15.40
2023-05-18T09:56:25.325Z,15.23
2023-05-18T09:58:53.578Z,15.01
2023-05-18T10:01:22.138Z,14.88
2023-05-18T10:03:50.522Z,14.97
2023-05-18T10:06:20.301Z,14.77
2023-05-18T10:08:48.813Z,14.78
2023-05-18T10:11:22.056Z,14.79
2023-05-18T10:13:55.005Z,15.05
2023-05-18T10:16:24.414Z,15.14
2023-05-18T10:18:53.545Z,15.53
2023-05-18T10:21:22.061Z,15.48
2023-05-18T10:23:50.458Z,15.36
2023-05-18T10:26:21.353Z,15.31
2023-05-18T10:28:51.078Z,15.03
2023-05-18T10:31:19.935Z,15.18
2023-05-18T10:33:48.248Z,15.22
2023-05-18T10:36:16.498Z,15.50
2023-05-18T10:38:45.557Z,15.59
2023-05-18T10:41:14.274Z,15.35
2023-05-18T10:43:45.617Z,15.28
2023-05-18T10:46:13.940Z,15.29
2023-05-18T10:48:42.292Z,15.11
2023-05-18T10:51:10.635Z,15.29
2023-05-18T10:53:38.897Z,15.59
2023-05-18T10:56:08.097Z,15.43
2023-05-18T10:58:36.453Z,15.48
2023-05-18T11:01:08.457Z,15.65
2023-05-18T11:03:37.095Z,15.48
2023-05-18T11:06:06.844Z,15.52
2023-05-18T11:08:35.128Z,15.84
2023-05-18T11:11:04.611Z,15.50
2023-05-18T11:13:33.515Z,15.48
2023-05-18T11:16:07.392Z,15.63
2023-05-18T11:18:36.728Z,15.73
2023-05-18T11:21:05.271Z,15.57
2023-05-18T11:23:33.901Z,15.36
2023-05-18T11:26:03.395Z,15.17
2023-05-18T11:28:31.695Z,15.29
2023-05-18T11:31:00.043Z,15.05
2023-05-18T11:33:30.736Z,14.99
2023-05-18T11:36:02.329Z,14.90
2023-05-18T11:38:52.110Z,15.16
2023-05-18T11:41:34.413Z,15.32
2023-05-18T11:44:18.591Z,15.70
2023-05-18T11:46:53.709Z,15.88
2023-05-18T11:49:25.145Z,15.55
2023-05-18T11:52:06.735Z,15.52
2023-05-18T11:54:36.413Z,15.62
2023-05-18T11:57:04.914Z,15.58
2023-05-18T11:59:34.094Z,15.37
2023-05-18T12:02:03.912Z,15.41
2023-05-18T12:04:34.286Z,15.40
2023-05-18T12:07:06.662Z,15.61
2023-05-18T12:09:35.473Z,15.74
2023-05-18T12:12:03.926Z,15.73
2023-05-18T12:14:33.012Z,16.01
2023-05-18T12:17:01.772Z,15.93
2023-05-18T12:19:30.078Z,15.77
2023-05-18T12:22:00.935Z,15.90
2023-05-18T12:24:29.231Z,15.71
2023-05-18T12:27:00.265Z,15.64
2023-05-18T12:29:28.702Z,15.69
2023-05-18T12:31:57.279Z,15.87
2023-05-18T12:34:29.872Z,15.86
2023-05-18T12:36:59.669Z,15.87
2023-05-18T12:39:28.985Z,15.77
2023-05-18T12:42:10.340Z,16.15
2023-05-18T12:44:38.788Z,16.14
2023-05-18T12:47:07.266Z,16.06
2023-05-18T12:49:39.675Z,16.00
2023-05-18T12:52:13.794Z,16.06
2023-05-18T12:54:55.559Z,16.13
2023-05-18T12:57:27.154Z,16.16
2023-05-18T12:59:56.045Z,15.86
2023-05-18T13:02:34.380Z,15.85
2023-05-18T13:05:06.341Z,15.88
2023-05-18T13:07:37.385Z,15.71
2023-05-18T13:10:10.534Z,15.27
2023-05-18T13:12:46.237Z,15.02
2023-05-18T13:15:16.039Z,14.81
2023-05-18T13:18:00.014Z,14.81
2023-05-18T13:20:36.012Z,14.87
2023-05-18T13:23:07.000Z,14.69
2023-05-18T13:25:35.693Z,14.80
2023-05-18T13:28:04.020Z,14.62
2023-05-18T13:30:32.708Z,15.00
2023-05-18T13:33:01.421Z,15.37
2023-05-18T13:35:29.924Z,15.26
2023-05-18T13:37:58.426Z,14.74
2023-05-18T13:40:28.455Z,14.73
2023-05-18T13:42:56.835Z,14.77
2023-05-18T13:45:25.301Z,14.77
2023-05-18T13:47:53.756Z,14.58
2023-05-18T13:50:23.055Z,14.73
2023-05-18T13:52:51.678Z,14.51
2023-05-18T13:55:19.908Z,14.55
2023-05-18T13:57:49.581Z,14.62
2023-05-18T14:00:20.585Z,14.67
2023-05-18T14:02:49.023Z,14.88
2023-05-18T14:05:17.859Z,14.98
2023-05-18T14:07:46.167Z,14.92
2023-05-18T14:10:14.525Z,14.96
2023-05-18T14:12:43.590Z,15.01
2023-05-18T14:15:14.181Z,14.97
2023-05-18T14:17:42.693Z,14.96
2023-05-18T14:20:11.951Z,14.94
2023-05-18T14:22:40.343Z,15.10
2023-05-18T14:25:09.291Z,15.27
2023-05-18T14:27:38.192Z,15.41
2023-05-18T14:30:07.791Z,15.44
2023-05-18T14:32:38.182Z,15.49
2023-05-18T14:35:07.679Z,15.46
2023-05-18T14:37:36.154Z,15.67
2023-05-18T14:40:05.930Z,15.43
2023-05-18T14:42:34.269Z,15.37
2023-05-18T14:45:03.148Z,15.33
2023-05-18T14:47:31.431Z,15.28
2023-05-18T14:50:01.263Z,15.32
2023-05-18T14:52:29.597Z,15.25
2023-05-18T14:54:57.894Z,15.15
2023-05-18T14:57:26.935Z,14.96
2023-05-18T14:59:55.771Z,14.85
2023-05-18T15:02:24.165Z,14.93
2023-05-18T15:04:52.706Z,15.07
2023-05-18T15:07:22.506Z,14.96
2023-05-18T15:09:50.815Z,15.17
2023-05-18T15:12:19.795Z,15.23
2023-05-18T15:14:48.081Z,15.15
2023-05-18T15:17:17.929Z,15.14
2023-05-18T15:19:47.150Z,15.15
2023-05-18T15:22:15.443Z,15.04
2023-05-18T15:24:45.282Z,14.94
2023-05-18T15:27:13.937Z,14.74
2023-05-18T15:29:42.338Z,14.66
2023-05-18T15:32:10.626Z,14.38
2023-05-18T15:34:38.981Z,14.23
2023-05-18T15:37:07.240Z,14.15
2023-05-18T15:39:35.682Z,14.04
2023-05-18T15:42:05.888Z,13.71
2023-05-18T15:44:34.144Z,13.75
2023-05-18T15:47:02.483Z,13.79
2023-05-18T15:49:33.616Z,13.61
2023-05-18T15:52:01.991Z,13.60
2023-05-18T15:54:30.852Z,13.79
2023-05-18T15:56:59.272Z,14.24
2023-05-18T15:59:29.016Z,14.80
2023-05-18T16:01:57.335Z,14.77
2023-05-18T16:04:25.727Z,14.73
2023-05-18T16:06:54.189Z,14.49
2023-05-18T16:09:23.126Z,14.77
2023-05-18T16:11:51.363Z,15.05
2023-05-18T16:14:19.636Z,14.94
2023-05-18T16:16:49.443Z,14.95
2023-05-18T16:19:18.856Z,15.02
2023-05-18T16:21:47.400Z,15.29
2023-05-18T16:24:15.730Z,15.39
2023-05-18T16:26:44.072Z,15.77
2023-05-18T16:29:12.481Z,16.04
2023-05-18T16:31:40.754Z,16.02
2023-05-18T16:34:10.419Z,15.69
2023-05-18T16:36:39.122Z,15.25
2023-05-18T16:39:08.030Z,15.10
2023-05-18T16:41:36.306Z,15.32
2023-05-18T16:44:04.596Z,15.29
2023-05-18T16:46:32.972Z,15.15
2023-05-18T16:49:01.711Z,14.92
2023-05-18T16:51:31.839Z,14.72
2023-05-18T16:54:00.302Z,14.52
2023-05-18T16:56:29.864Z,14.38
2023-05-18T16:58:58.170Z,14.34
2023-05-18T17:01:28.585Z,14.13
2023-05-18T17:03:58.237Z,14.01
2023-05-18T17:06:27.003Z,13.93
2023-05-18T17:08:58.767Z,13.84
2023-05-18T17:11:27.794Z,13.74
2023-05-18T17:13:57.616Z,13.80
2023-05-18T17:16:27.354Z,13.80
2023-05-18T17:18:56.687Z,13.63
2023-05-18T17:21:28.596Z,13.46
2023-05-18T17:23:59.283Z,13.27
2023-05-18T17:26:30.719Z,13.08
2023-05-18T17:28:59.580Z,13.15
2023-05-18T17:31:28.616Z,13.10
2023-05-18T17:33:56.938Z,13.08
2023-05-18T17:36:25.238Z,12.89
2023-05-18T17:38:53.465Z,12.77
2023-05-18T17:41:23.524Z,12.58
2023-05-18T17:43:52.089Z,12.48
2023-05-18T17:46:20.598Z,12.44
2023-05-18T17:48:49.102Z,12.26
2023-05-18T17:51:17.486Z,12.19
2023-05-18T17:53:45.788Z,12.17
2023-05-18T17:56:14.067Z,12.12
2023-05-18T17:58:44.015Z,12.08
2023-05-18T18:01:12.364Z,12.02
2023-05-18T18:03:42.131Z,11.92
2023-05-18T18:06:10.496Z,11.79
2023-05-18T18:08:38.798Z,11.76
2023-05-18T18:11:09.211Z,11.64
2023-05-18T18:13:37.980Z,11.68
2023-05-18T18:16:07.910Z,11.64
2023-05-18T18:18:37.477Z,11.48
2023-05-18T18:21:06.596Z,11.48
2023-05-18T18:23:34.981Z,11.44
2023-05-18T18:26:04.016Z,11.41
2023-05-18T18:28:32.369Z,11.35
2023-05-18T18:31:00.728Z,11.30
2023-05-18T18:33:30.608Z,11.26
2023-05-18T18:35:58.994Z,11.26
2023-05-18T18:38:28.919Z,11.21
2023-05-18T18:41:01.594Z,11.14
2023-05-18T18:43:30.124Z,11.06
2023-05-18T18:45:58.470Z,11.01
2023-05-18T18:48:26.742Z,10.98
2023-05-18T18:50:57.215Z,10.93
2023-05-18T18:53:25.800Z,10.89
2023-05-18T18:55:54.339Z,10.86
2023-05-18T18:58:24.344Z,10.84
2023-05-18T19:00:52.719Z,10.85
2023-05-18T19:03:21.894Z,10.80
2023-05-18T19:05:51.012Z,10.81
2023-05-18T19:08:21.047Z,10.78
2023-05-18T19:10:49.354Z,10.73
2023-05-18T19:13:17.886Z,10.69
2023-05-18T19:15:47.268Z,10.66
2023-05-18T19:18:15.660Z,10.63
2023-05-18T19:20:44.187Z,10.61
2023-05-18T19:23:12.445Z,10.57
2023-05-18T19:25:42.273Z,10.57
2023-05-18T19:28:10.542Z,10.54
2023-05-18T19:30:38.767Z,10.52
2023-05-18T19:33:07.099Z,10.49
2023-05-18T19:35:35.610Z,10.50
2023-05-18T19:38:03.992Z,10.45
2023-05-18T19:40:32.312Z,10.41
2023-05-18T19:43:02.023Z,10.35
2023-05-18T19:45:30.557Z,10.32
2023-05-18T19:47:59.503Z,10.33
2023-05-18T19:50:28.127Z,10.33
2023-05-18T19:52:56.524Z,10.34
2023-05-18T19:55:24.870Z,10.34
2023-05-18T19:57:53.155Z,10.34
2023-05-18T20:00:22.909Z,10.35
2023-05-18T20:02:51.255Z,10.32
2023-05-18T20:05:19.892Z,10.28
2023-05-18T20:07:48.360Z,10.28
2023-05-18T20:10:19.831Z,10.30
2023-05-18T20:12:48.474Z,10.26
2023-05-18T20:15:17.585Z,10.28
2023-05-18T20:17:47.814Z,10.25
2023-05-18T20:20:17.614Z,10.21
2023-05-18T20:22:46.181Z,10.16
2023-05-18T20:25:15.009Z,10.18
2023-05-18T20:27:43.751Z,10.17
2023-05-18T20:30:13.029Z,10.13
2023-05-18T20:32:41.560Z,10.12
2023-05-18T20:35:16.014Z,10.10
2023-05-18T20:37:45.481Z,10.06
2023-05-18T20:40:14.359Z,10.06
2023-05-18T20:42:43.208Z,10.05
2023-05-18T20:45:12.646Z,10.03
2023-05-18T20:47:42.240Z,10.01
2023-05-18T20:50:11.614Z,9.98
2023-05-18T20:52:42.425Z,9.97
2023-05-18T20:55:14.001Z,9.98
2023-05-18T20:57:44.844Z,9.95
2023-05-18T21:00:14.249Z,9.96
2023-05-18T21:02:42.914Z,9.96
2023-05-18T21:05:11.808Z,9.94
2023-05-18T21:07:42.261Z,9.90
2023-05-18T21:10:14.082Z,9.89
2023-05-18T21:12:42.902Z,9.86
2023-05-18T21:15:12.242Z,9.86
2023-05-18T21:17:40.971Z,9.88
2023-05-18T21:20:10.583Z,9.83
2023-05-18T21:22:39.366Z,9.82
2023-05-18T21:25:11.400Z,9.78
2023-05-18T21:27:40.271Z,9.78
2023-05-18T21:30:10.416Z,9.80
2023-05-18T21:32:40.923Z,9.80
2023-05-18T21:35:10.780Z,9.80
2023-05-18T21:37:39.446Z,9.72
2023-05-18T21:40:10.921Z,9.69
2023-05-18T21:42:45.302Z,9.69
2023-05-18T21:45:14.239Z,9.70
2023-05-18T21:47:43.411Z,9.66
2023-05-18T21:50:12.996Z,9.64
2023-05-18T21:52:41.473Z,9.63
2023-05-18T21:55:11.526Z,9.60
2023-05-18T21:57:39.832Z,9.57
2023-05-18T22:00:10.842Z,9.59
2023-05-18T22:02:42.100Z,9.53
2023-05-18T22:05:11.282Z,9.54
2023-05-18T22:07:39.683Z,9.51
2023-05-18T22:10:08.536Z,9.52
2023-05-18T22:12:40.459Z,9.48
2023-05-18T22:15:10.733Z,9.49
2023-05-18T22:17:39.562Z,9.49
2023-05-18T22:20:11.301Z,9.49
2023-05-18T22:22:40.650Z,9.48
2023-05-18T22:25:09.711Z,9.49
2023-05-18T22:27:39.419Z,9.51
2023-05-18T22:30:09.498Z,9.49
2023-05-18T22:32:38.343Z,9.48
2023-05-18T22:35:07.799Z,9.48
2023-05-18T22:37:36.817Z,9.47
2023-05-18T22:40:06.669Z,9.44
2023-05-18T22:42:35.311Z,9.45
2023-05-18T22:45:06.565Z,9.46
2023-05-18T22:47:35.313Z,9.46
2023-05-18T22:50:03.922Z,9.45
2023-05-18T22:52:32.544Z,9.46
2023-05-18T22:55:01.179Z,9.44
2023-05-18T22:57:29.707Z,9.44
2023-05-18T22:59:57.978Z,9.42
2023-05-18T23:02:28.369Z,9.43
2023-05-18T23:04:56.752Z,9.41
2023-05-18T23:07:25.233Z,9.42
2023-05-18T23:09:53.845Z,9.42
2023-05-18T23:12:22.404Z,9.41
2023-05-18T23:14:54.922Z,9.37
2023-05-18T23:17:24.022Z,9.38
2023-05-18T23:19:53.933Z,9.39
2023-05-18T23:22:22.211Z,9.37
2023-05-18T23:24:50.959Z,9.35
2023-05-18T23:27:19.901Z,9.34
2023-05-18T23:29:48.138Z,9.34
2023-05-18T23:32:16.549Z,9.33
2023-05-18T23:34:45.590Z,9.30
2023-05-18T23:37:18.425Z,9.29
2023-05-18T23:39:47.225Z,9.28
2023-05-18T23:42:15.820Z,9.27
2023-05-18T23:44:45.017Z,9.27
2023-05-18T23:47:14.650Z,9.27
2023-05-18T23:49:43.576Z,9.25
2023-05-18T23:52:14.822Z,9.25
2023-05-18T23:54:45.628Z,9.23
2023-05-18T23:57:14.432Z,9.23
2023-05-18T23:59:43.090Z,9.22
